Time;durP1;ratioP1;P1;durP2;ratioP2;P2;SDS_P1;SDS_P2;PMS_P1;PMS_P2;Temp;Humidity;BMP_temperature;BMP_pressure;BME280_temperature;BME280_humidity;BME280_pressure;Samples;Min_cycle;Max_cycle;Signal;HPM_P1;HPM_P2
2022/05/11 00:00:00;;;;;;;3.95;3.65;;;20.50;63.10;;;;;;4975665;28;20216;-71
2022/05/11 00:02:26;;;;;;;4.60;4.10;;;20.50;63.10;;;;;;4993057;28;20169;-71
2022/05/11 00:04:52;;;;;;;4.75;4.13;;;20.50;63.10;;;;;;4975773;28;20205;-71
2022/05/11 00:07:18;;;;;;;4.03;3.72;;;20.50;63.20;;;;;;4975807;28;20276;-71
2022/05/11 00:09:44;;;;;;;4.50;3.88;;;20.50;63.10;;;;;;4959359;28;20224;-71
2022/05/11 00:12:10;;;;;;;4.72;4.05;;;20.50;63.20;;;;;;4959132;28;20243;-71
2022/05/11 00:14:36;;;;;;;4.00;3.70;;;20.50;63.10;;;;;;4993102;28;20205;-71
2022/05/11 00:17:03;;;;;;;5.00;4.60;;;20.50;63.10;;;;;;4975734;28;20199;-71
2022/05/11 00:19:29;;;;;;;4.80;4.40;;;20.50;63.10;;;;;;4975367;28;20216;-71
2022/05/11 00:21:55;;;;;;;4.85;4.25;;;20.50;63.10;;;;;;4975170;28;20205;-71
2022/05/11 00:24:21;;;;;;;4.90;4.50;;;20.50;63.10;;;;;;4959475;28;20243;-71
2022/05/11 00:26:47;;;;;;;4.53;4.13;;;20.50;63.10;;;;;;4975415;28;20357;-71
2022/05/11 00:29:12;;;;;;;4.60;4.20;;;20.50;63.10;;;;;;4975459;28;20193;-71
2022/05/11 00:31:38;;;;;;;4.85;4.45;;;20.50;63.10;;;;;;4975395;28;20244;-71
2022/05/11 00:34:04;;;;;;;4.50;4.10;;;20.50;63.10;;;;;;4975220;28;20243;-71
2022/05/11 00:36:29;;;;;;;4.50;4.10;;;20.40;63.00;;;;;;4975343;28;20192;-71
2022/05/11 00:38:55;;;;;;;4.53;4.13;;;20.40;63.00;;;;;;4975385;28;20208;-71
2022/05/11 00:41:21;;;;;;;5.07;4.00;;;20.40;63.00;;;;;;4974960;28;20571;-71
2022/05/11 00:43:59;;;;;;;5.47;4.40;;;20.40;63.00;;;;;;4975260;28;20239;-71
2022/05/11 00:46:32;;;;;;;4.65;4.22;;;20.40;63.00;;;;;;4992590;28;20184;-71
2022/05/11 00:52:20;;;;;;;4.75;4.35;;;20.40;63.00;;;;;;4978940;28;20707;-71
2022/05/11 00:55:32;;;;;;;4.80;4.40;;;20.40;63.00;;;;;;4978183;28;20275;-71
2022/05/11 00:58:19;;;;;;;4.20;3.90;;;20.40;63.00;;;;;;4933357;28;20200;-70
2022/05/11 01:00:46;;;;;;;4.38;3.92;;;20.40;63.00;;;;;;4978687;28;20286;-71
2022/05/11 01:03:22;;;;;;;3.88;3.58;;;20.40;62.90;;;;;;4962649;28;20184;-71
2022/05/11 01:05:48;;;;;;;4.10;3.80;;;20.40;63.00;;;;;;4978547;28;20193;-71
2022/05/11 01:08:19;;;;;;;4.18;3.85;;;20.40;62.90;;;;;;4996049;28;20710;-71
2022/05/11 01:10:46;;;;;;;4.68;4.32;;;20.40;62.90;;;;;;4962721;28;20251;-71
2022/05/11 01:13:15;;;;;;;4.47;4.07;;;20.40;62.90;;;;;;4962176;28;20220;-71
2022/05/11 01:15:45;;;;;;;4.68;4.07;;;20.40;62.90;;;;;;4978544;28;20546;-71
2022/05/11 01:18:11;;;;;;;4.28;3.88;;;20.40;62.90;;;;;;4962622;28;20190;-71
2022/05/11 01:20:38;;;;;;;4.15;3.85;;;20.40;62.80;;;;;;4995531;28;20185;-71
2022/05/11 01:23:17;;;;;;;4.38;4.07;;;20.40;62.80;;;;;;4962206;28;20180;-71
2022/05/11 01:25:44;;;;;;;4.40;4.05;;;20.40;62.90;;;;;;4995651;28;20161;-71
2022/05/11 01:28:13;;;;;;;4.47;4.07;;;20.40;62.80;;;;;;4978324;28;20232;-71
2022/05/11 01:30:44;;;;;;;4.53;3.92;;;20.40;62.80;;;;;;4978293;28;20189;-71
2022/05/11 01:33:15;;;;;;;4.63;4.22;;;20.40;62.80;;;;;;4995472;28;20633;-71
2022/05/11 01:35:50;;;;;;;3.70;3.40;;;20.40;62.80;;;;;;4995666;28;20176;-71
2022/05/11 01:38:44;;;;;;;4.30;3.88;;;20.40;62.80;;;;;;4978103;28;20238;-71
2022/05/11 01:41:27;;;;;;;4.28;3.88;;;20.40;62.90;;;;;;4977861;28;20209;-71
2022/05/11 01:43:54;;;;;;;4.65;4.25;;;20.40;62.80;;;;;;4978037;28;20244;-71
2022/05/11 01:46:20;;;;;;;4.28;3.97;;;20.40;62.80;;;;;;4961730;28;20280;-71
2022/05/11 01:48:46;;;;;;;4.78;4.40;;;20.40;62.80;;;;;;4977863;28;20201;-71
2022/05/11 01:51:15;;;;;;;4.35;4.05;;;20.40;62.80;;;;;;4977972;28;20185;-71
2022/05/11 01:53:42;;;;;;;4.40;4.00;;;20.40;62.80;;;;;;4977685;28;20267;-71
2022/05/11 01:56:09;;;;;;;4.20;3.90;;;20.30;62.60;;;;;;4995182;28;20216;-71
2022/05/11 01:58:37;;;;;;;4.68;4.10;;;20.30;62.60;;;;;;4977573;28;20225;-71
2022/05/11 02:01:04;;;;;;;4.10;3.80;;;20.40;62.70;;;;;;4976873;28;20181;-71
2022/05/11 02:03:29;;;;;;;4.40;4.00;;;20.40;62.70;;;;;;4994890;28;20208;-71
2022/05/11 02:08:43;;;;;;;4.03;3.72;;;20.30;62.50;;;;;;4977486;28;20235;-71
2022/05/11 02:11:11;;;;;;;4.10;3.80;;;20.30;62.60;;;;;;4976206;28;20188;-71
2022/05/11 02:13:37;;;;;;;3.85;3.55;;;20.40;62.70;;;;;;4977067;28;20205;-71
2022/05/11 02:16:04;;;;;;;4.03;3.72;;;20.30;62.50;;;;;;4961270;28;20220;-71
2022/05/11 02:18:30;;;;;;;4.70;4.30;;;20.30;62.50;;;;;;4961470;28;20213;-71
2022/05/11 02:20:56;;;;;;;3.92;3.63;;;20.30;62.50;;;;;;4961127;28;20196;-70
2022/05/11 02:23:23;;;;;;;3.75;3.45;;;20.30;62.40;;;;;;4977811;28;20209;-71
2022/05/11 02:25:51;;;;;;;3.90;3.58;;;20.30;62.50;;;;;;4976650;28;20185;-71
2022/05/11 02:28:21;;;;;;;4.43;4.13;;;20.30;62.50;;;;;;4961280;28;20247;-71
2022/05/11 02:30:50;;;;;;;4.53;4.13;;;20.30;62.40;;;;;;4994605;28;20180;-71
2022/05/11 02:33:16;;;;;;;3.90;3.60;;;20.30;62.40;;;;;;4960724;28;20204;-71
2022/05/11 02:35:43;;;;;;;3.80;3.50;;;20.30;62.40;;;;;;4976978;28;20188;-71
2022/05/11 02:38:15;;;;;;;4.10;3.70;;;20.30;62.40;;;;;;4960892;28;20185;-71
2022/05/11 02:40:42;;;;;;;4.07;3.67;;;20.30;62.40;;;;;;4960678;28;20263;-71
2022/05/11 02:43:09;;;;;;;3.55;3.33;;;20.30;62.40;;;;;;4960545;28;20238;-71
2022/05/11 02:45:39;;;;;;;4.13;3.72;;;20.30;62.40;;;;;;4976875;28;20207;-71
2022/05/11 02:48:07;;;;;;;3.83;3.58;;;20.30;62.40;;;;;;4960725;28;20197;-71
2022/05/11 02:50:42;;;;;;;3.88;3.58;;;20.30;62.30;;;;;;4960748;28;20192;-71
2022/05/11 02:53:10;;;;;;;4.15;3.75;;;20.30;62.30;;;;;;4976816;28;20169;-71
2022/05/11 02:55:38;;;;;;;4.55;4.15;;;20.30;62.30;;;;;;4960871;28;20189;-71
2022/05/11 02:58:05;;;;;;;4.13;3.83;;;20.30;62.30;;;;;;4976978;28;20185;-71
2022/05/11 03:00:31;;;;;;;4.10;3.80;;;20.30;62.20;;;;;;4960483;28;20283;-71
2022/05/11 03:03:00;;;;;;;4.78;4.05;;;20.30;62.30;;;;;;4960333;28;20666;-71
2022/05/11 03:05:26;;;;;;;4.65;4.25;;;20.30;62.30;;;;;;4960682;28;20196;-71
2022/05/11 03:07:52;;;;;;;4.47;4.10;;;20.30;62.20;;;;;;4976249;28;20185;-71
2022/05/11 03:10:17;;;;;;;4.20;3.90;;;20.30;62.20;;;;;;4992409;28;20193;-71
2022/05/11 03:12:43;;;;;;;4.18;3.80;;;20.30;62.20;;;;;;4992528;28;20192;-71
2022/05/11 03:15:10;;;;;;;4.07;3.67;;;20.30;62.20;;;;;;4992645;28;20213;-71
2022/05/11 03:17:36;;;;;;;3.72;3.42;;;20.30;62.20;;;;;;4976205;28;20185;-71
2022/05/11 03:20:04;;;;;;;3.75;3.45;;;20.30;62.20;;;;;;4992320;28;20227;-71
2022/05/11 03:22:30;;;;;;;3.90;3.60;;;20.30;62.20;;;;;;4992266;28;20185;-71
2022/05/11 03:24:56;;;;;;;4.13;3.72;;;20.20;62.10;;;;;;4992230;28;20212;-71
2022/05/11 03:27:22;;;;;;;3.95;3.60;;;20.20;62.10;;;;;;4992203;28;20224;-71
2022/05/11 03:29:48;;;;;;;3.70;3.40;;;20.20;62.10;;;;;;4975929;28;20200;-71
2022/05/11 03:34:58;;;;;;;4.40;3.63;;;20.20;62.10;;;;;;4993440;28;20231;-71
2022/05/11 03:37:24;;;;;;;3.78;3.47;;;20.20;62.10;;;;;;4992053;28;20228;-71
2022/05/11 03:39:51;;;;;;;3.83;3.53;;;20.20;62.00;;;;;;4992256;28;20220;-71
2022/05/11 03:42:20;;;;;;;3.42;3.22;;;20.20;62.00;;;;;;4993075;28;20195;-71
2022/05/11 03:44:46;;;;;;;4.00;3.70;;;20.20;62.00;;;;;;4991857;28;20212;-71
2022/05/11 03:47:12;;;;;;;3.70;3.40;;;20.20;62.00;;;;;;4992205;28;20212;-71
2022/05/11 03:49:37;;;;;;;3.83;3.53;;;20.20;62.00;;;;;;4992184;28;20192;-71
2022/05/11 03:52:04;;;;;;;3.63;3.42;;;20.20;62.00;;;;;;4991613;28;20243;-71
2022/05/11 03:54:31;;;;;;;3.95;3.65;;;20.20;62.00;;;;;;4992988;28;20203;-71
2022/05/11 03:56:57;;;;;;;4.13;3.83;;;20.20;62.00;;;;;;4991893;28;20197;-71
2022/05/11 03:59:23;;;;;;;4.10;3.80;;;20.20;62.00;;;;;;4991841;28;20217;-71
2022/05/11 04:01:49;;;;;;;4.00;3.70;;;20.20;62.00;;;;;;4975655;28;20180;-71
2022/05/11 04:04:15;;;;;;;3.92;3.63;;;20.20;62.00;;;;;;4975415;28;20291;-71
2022/05/11 04:06:40;;;;;;;4.32;4.00;;;20.20;62.00;;;;;;4991636;28;20181;-71
2022/05/11 04:09:06;;;;;;;4.00;3.63;;;20.20;62.00;;;;;;4991751;28;20203;-71
2022/05/11 04:11:33;;;;;;;3.92;3.40;;;20.20;62.00;;;;;;4991822;28;20188;-71
2022/05/11 04:13:59;;;;;;;3.47;3.17;;;20.20;62.00;;;;;;4991633;28;20696;-71
2022/05/11 04:16:25;;;;;;;3.80;3.50;;;20.20;62.00;;;;;;4991691;28;20203;-71
2022/05/11 04:18:51;;;;;;;3.65;3.35;;;20.20;62.00;;;;;;4991680;28;20216;-71
2022/05/11 04:21:16;;;;;;;3.67;3.38;;;20.20;62.00;;;;;;4991377;28;20343;-71
2022/05/11 04:23:43;;;;;;;3.80;3.50;;;20.20;62.00;;;;;;4978294;28;20205;-72
2022/05/11 04:26:12;;;;;;;3.85;3.55;;;20.20;62.00;;;;;;4995681;28;20702;-71
2022/05/11 04:28:39;;;;;;;3.22;3.03;;;20.20;62.00;;;;;;4995778;28;20189;-71
2022/05/11 04:31:10;;;;;;;3.67;3.38;;;20.20;61.90;;;;;;4995304;28;20242;-71
2022/05/11 04:33:36;;;;;;;3.47;3.22;;;20.20;61.90;;;;;;4996454;28;20218;-69
2022/05/11 04:36:05;;;;;;;3.90;3.60;;;20.20;62.00;;;;;;4979480;28;20177;-71
2022/05/11 04:38:31;;;;;;;4.10;3.80;;;20.10;61.80;;;;;;4995312;28;20224;-71
2022/05/11 04:40:57;;;;;;;3.45;3.22;;;20.20;61.90;;;;;;4995547;28;20173;-70
2022/05/11 04:43:23;;;;;;;4.38;4.07;;;20.20;61.90;;;;;;4995231;28;20252;-71
2022/05/11 04:45:50;;;;;;;3.75;3.45;;;20.20;61.90;;;;;;4995365;28;20551;-71
2022/05/11 04:48:18;;;;;;;5.40;4.35;;;20.10;61.70;;;;;;4995246;28;20191;-71
2022/05/11 04:50:45;;;;;;;4.40;4.00;;;20.20;61.90;;;;;;4978967;28;20181;-71
2022/05/11 04:53:15;;;;;;;5.30;4.32;;;20.20;61.80;;;;;;4995048;28;20272;-71
2022/05/11 04:55:41;;;;;;;5.25;4.60;;;20.20;61.90;;;;;;4995002;28;20188;-70
2022/05/11 04:58:07;;;;;;;5.07;4.63;;;20.20;61.80;;;;;;4994951;28;20668;-71
2022/05/11 05:00:35;;;;;;;4.65;4.25;;;20.20;61.90;;;;;;4994631;28;20187;-70
2022/05/11 05:03:08;;;;;;;4.70;4.22;;;20.20;61.80;;;;;;4962469;28;20664;-72
2022/05/11 05:05:34;;;;;;;4.00;3.70;;;20.20;61.90;;;;;;4962601;28;20176;-72
2022/05/11 05:07:59;;;;;;;4.43;4.13;;;20.20;61.90;;;;;;4962836;28;20192;-70
2022/05/11 05:10:25;;;;;;;6.03;4.45;;;20.20;61.80;;;;;;4962403;28;20193;-71
2022/05/11 05:12:51;;;;;;;4.93;4.50;;;20.20;61.80;;;;;;4962331;28;20216;-71
2022/05/11 05:15:18;;;;;;;4.75;4.35;;;20.20;61.80;;;;;;4962097;28;20251;-71
2022/05/11 05:17:44;;;;;;;4.72;4.20;;;20.20;61.80;;;;;;4978141;28;20191;-71
2022/05/11 05:20:14;;;;;;;4.10;3.80;;;20.20;61.80;;;;;;4977920;28;20237;-73
2022/05/11 05:22:40;;;;;;;4.50;4.10;;;20.20;61.80;;;;;;4977783;28;20208;-71
2022/05/11 05:25:06;;;;;;;4.80;4.40;;;20.20;61.80;;;;;;4977776;28;20696;-71
2022/05/11 05:27:32;;;;;;;4.55;4.15;;;20.20;61.80;;;;;;4977698;28;20189;-71
2022/05/11 05:32:44;;;;;;;6.05;5.50;;;20.20;62.50;;;;;;4977617;28;20280;-71
2022/05/11 05:35:16;;;;;;;4.68;4.28;;;20.20;61.80;;;;;;4976498;28;20205;-71
2022/05/11 05:37:43;;;;;;;5.03;4.63;;;20.20;61.80;;;;;;4977339;28;20184;-71
2022/05/11 05:40:10;;;;;;;4.22;3.92;;;20.20;61.80;;;;;;4977473;28;20295;-71
2022/05/11 05:42:38;;;;;;;4.90;4.50;;;20.20;61.80;;;;;;4960704;28;20200;-71
2022/05/11 05:45:06;;;;;;;4.90;4.30;;;20.20;61.80;;;;;;5070753;22;20225;-71
2022/05/11 05:47:32;;;;;;;4.60;4.20;;;20.20;61.80;;;;;;5057356;28;20178;-71
2022/05/11 05:49:58;;;;;;;4.60;4.20;;;20.20;61.80;;;;;;5076820;28;20183;-71
2022/05/11 05:52:25;;;;;;;4.05;3.75;;;20.20;61.80;;;;;;5058264;28;20186;-71
2022/05/11 05:54:55;;;;;;;4.55;4.13;;;20.20;61.80;;;;;;5075729;28;20213;-71
2022/05/11 05:57:20;;;;;;;4.18;3.88;;;20.20;61.80;;;;;;5075914;28;20186;-71
2022/05/11 05:59:47;;;;;;;4.47;4.07;;;20.20;61.80;;;;;;5059088;28;20212;-71
2022/05/11 06:02:14;;;;;;;4.13;3.80;;;20.30;61.90;;;;;;5058140;28;20174;-70
2022/05/11 06:04:42;;;;;;;3.75;3.45;;;20.30;61.90;;;;;;5075295;28;20202;-70
2022/05/11 06:07:11;;;;;;;5.00;4.05;;;20.30;61.90;;;;;;5074993;28;20327;-71
2022/05/11 06:09:38;;;;;;;4.18;3.88;;;20.30;61.90;;;;;;5074300;28;20285;-71
2022/05/11 06:12:09;;;;;;;4.20;3.90;;;20.30;61.90;;;;;;5066637;28;20193;-71
2022/05/11 06:14:36;;;;;;;4.45;4.10;;;20.20;61.80;;;;;;5090998;28;20206;-71
2022/05/11 06:17:03;;;;;;;4.65;4.28;;;20.30;62.00;;;;;;5056051;28;20188;-71
2022/05/11 06:19:30;;;;;;;4.60;4.28;;;20.30;62.00;;;;;;5037868;28;20241;-71
2022/05/11 06:21:56;;;;;;;4.70;4.30;;;20.30;62.00;;;;;;5066349;28;20185;-71
2022/05/11 06:24:22;;;;;;;5.03;4.63;;;20.30;62.00;;;;;;5074576;28;20212;-72
2022/05/11 06:26:48;;;;;;;4.45;4.05;;;20.30;62.00;;;;;;5074768;28;20189;-71
2022/05/11 06:29:14;;;;;;;4.45;4.15;;;20.30;62.10;;;;;;5073264;28;20201;-71
2022/05/11 06:31:40;;;;;;;4.43;4.03;;;20.30;62.20;;;;;;5063343;28;20190;-71
2022/05/11 06:34:09;;;;;;;4.10;3.80;;;20.40;62.30;;;;;;5057099;28;20212;-71
2022/05/11 06:36:34;;;;;;;4.13;3.72;;;20.30;62.10;;;;;;5074385;28;20221;-71
2022/05/11 06:39:00;;;;;;;4.57;4.20;;;20.30;62.00;;;;;;5074212;28;20224;-70
2022/05/11 06:41:28;;;;;;;4.03;3.72;;;20.40;62.30;;;;;;5065266;28;20182;-71
2022/05/11 06:43:54;;;;;;;3.83;3.53;;;20.40;62.30;;;;;;5054366;28;20207;-71
2022/05/11 06:46:21;;;;;;;4.05;3.75;;;20.40;62.40;;;;;;5055191;28;20225;-72
2022/05/11 06:48:48;;;;;;;4.70;4.30;;;20.40;62.40;;;;;;5053282;28;20182;-71
2022/05/11 06:51:17;;;;;;;4.53;4.22;;;20.40;62.40;;;;;;5061002;28;20170;-71
2022/05/11 06:59:24;;;;;;;3.88;3.58;;;20.40;62.30;;;;;;5072524;28;20206;-71
2022/05/11 07:01:53;;;;;;;4.35;3.95;;;20.40;62.30;;;;;;5072153;28;20192;-71
2022/05/11 07:04:22;;;;;;;3.97;3.67;;;20.40;62.30;;;;;;5072283;28;20705;-71
2022/05/11 07:06:51;;;;;;;4.07;3.78;;;20.40;62.30;;;;;;5074116;28;20217;-71
2022/05/11 07:09:18;;;;;;;4.10;3.70;;;20.40;62.40;;;;;;5056138;28;20186;-71
2022/05/11 07:14:28;;;;;;;4.13;3.83;;;20.40;62.40;;;;;;5072697;28;20202;-71
2022/05/11 07:16:55;;;;;;;4.28;3.88;;;20.50;62.70;;;;;;5072496;28;20612;-71
2022/05/11 07:19:23;;;;;;;3.88;3.58;;;20.40;62.50;;;;;;5072718;28;20217;-71
2022/05/11 07:21:50;;;;;;;4.38;3.90;;;20.50;62.60;;;;;;5051183;28;20581;-71
2022/05/11 07:24:16;;;;;;;3.92;3.63;;;20.50;62.60;;;;;;5052963;28;20252;-71
2022/05/11 07:26:42;;;;;;;3.92;3.60;;;20.50;62.60;;;;;;5080183;28;20196;-71
2022/05/11 07:29:08;;;;;;;3.78;3.47;;;20.50;62.50;;;;;;5072381;28;20201;-71
2022/05/11 07:31:34;;;;;;;4.10;3.80;;;20.50;62.60;;;;;;5054000;28;20292;-70
2022/05/11 07:34:00;;;;;;;3.95;3.65;;;20.50;62.50;;;;;;5072601;28;20335;-70
2022/05/11 07:36:26;;;;;;;3.60;3.40;;;20.50;62.70;;;;;;5055817;28;20200;-70
2022/05/11 07:38:52;;;;;;;4.30;4.00;;;20.60;62.60;;;;;;5065718;28;20217;-71
2022/05/11 07:41:18;;;;;;;3.50;3.30;;;20.60;62.70;;;;;;5052404;28;20236;-71
2022/05/11 07:43:44;;;;;;;3.65;3.35;;;20.60;62.60;;;;;;5052227;28;20206;-71
2022/05/11 07:46:09;;;;;;;3.90;3.60;;;20.60;62.50;;;;;;5035766;28;20201;-71
2022/05/11 07:48:36;;;;;;;3.90;3.60;;;20.60;62.50;;;;;;5053456;28;20182;-71
2022/05/11 07:51:02;;;;;;;4.07;3.78;;;20.60;62.40;;;;;;5057196;28;20185;-71
2022/05/11 07:53:28;;;;;;;4.22;3.83;;;20.70;62.60;;;;;;5071979;28;20276;-71
2022/05/11 08:01:23;;;;;;;3.80;3.55;;;20.70;62.50;;;;;;5064785;28;20181;-71
2022/05/11 08:03:50;;;;;;;3.70;3.40;;;20.70;62.50;;;;;;5035246;28;20214;-71
2022/05/11 08:06:16;;;;;;;3.50;3.20;;;20.70;62.50;;;;;;5035762;28;20257;-71
2022/05/11 08:08:42;;;;;;;4.10;3.67;;;20.70;62.50;;;;;;5051922;28;20182;-71
2022/05/11 08:11:08;;;;;;;3.78;3.47;;;20.70;62.50;;;;;;5057326;28;20359;-71
2022/05/11 08:13:34;;;;;;;3.50;3.20;;;20.70;62.50;;;;;;5060827;28;20274;-71
2022/05/11 08:16:01;;;;;;;3.38;3.08;;;20.70;62.60;;;;;;5052002;28;20273;-71
2022/05/11 08:18:27;;;;;;;3.63;3.33;;;20.70;62.60;;;;;;5051997;28;20190;-71
2022/05/11 08:20:53;;;;;;;3.72;3.10;;;20.70;62.50;;;;;;5051677;28;20178;-71
2022/05/11 08:23:20;;;;;;;3.60;3.30;;;20.70;62.60;;;;;;5035697;28;20209;-71
2022/05/11 08:25:47;;;;;;;3.42;3.13;;;20.70;62.70;;;;;;5051905;28;20186;-71
2022/05/11 08:28:22;;;;;;;3.85;3.50;;;20.70;62.60;;;;;;5069078;28;20197;-71
2022/05/11 08:33:39;;;;;;;3.70;3.40;;;20.70;62.50;;;;;;5052000;28;20190;-71
2022/05/11 08:36:13;;;;;;;3.58;3.28;;;20.80;62.70;;;;;;5051828;28;20171;-71
2022/05/11 08:38:43;;;;;;;3.38;3.17;;;20.80;62.70;;;;;;5051460;28;20222;-71
2022/05/11 08:41:28;;;;;;;3.55;3.25;;;20.80;62.70;;;;;;5040686;28;20190;-70
2022/05/11 08:44:17;;;;;;;3.60;3.30;;;20.80;62.70;;;;;;5088546;28;20209;-70
2022/05/11 08:47:27;;;;;;;3.42;3.13;;;20.80;62.80;;;;;;5055463;28;20182;-71
2022/05/11 08:49:59;;;;;;;3.45;3.13;;;20.80;62.70;;;;;;5072827;28;20167;-71
2022/05/11 08:52:57;;;;;;;3.28;3.08;;;20.80;62.80;;;;;;5055457;28;20182;-72
2022/05/11 08:55:46;;;;;;;3.40;3.10;;;20.80;62.70;;;;;;5051172;28;20203;-71
2022/05/11 08:58:30;;;;;;;3.78;3.47;;;20.80;62.70;;;;;;5074352;28;20182;-71
2022/05/11 09:00:58;;;;;;;3.38;3.10;;;20.80;62.70;;;;;;5056318;28;20257;-71
2022/05/11 09:03:41;;;;;;;3.60;3.30;;;20.80;62.80;;;;;;5071292;28;20184;-71
2022/05/11 09:06:26;;;;;;;3.45;3.15;;;20.80;62.90;;;;;;5088434;28;20209;-72
2022/05/11 09:09:00;;;;;;;3.60;3.30;;;20.80;62.80;;;;;;5055903;28;20682;-72
2022/05/11 09:11:40;;;;;;;3.35;3.15;;;20.80;62.90;;;;;;5056918;28;20273;-72
2022/05/11 09:14:06;;;;;;;3.10;2.90;;;20.80;63.00;;;;;;5075111;28;20201;-71
2022/05/11 09:16:42;;;;;;;3.13;2.90;;;20.80;63.00;;;;;;5073991;28;20217;-71
2022/05/11 09:19:19;;;;;;;2.88;2.67;;;20.80;62.90;;;;;;5054353;28;20213;-71
2022/05/11 09:21:54;;;;;;;3.25;3.03;;;20.80;62.90;;;;;;5081297;28;20213;-71
2022/05/11 09:24:27;;;;;;;3.30;3.00;;;20.80;63.10;;;;;;5073704;28;20201;-71
2022/05/11 09:27:29;;;;;;;3.42;3.13;;;20.80;63.20;;;;;;5056866;28;20181;-71
2022/05/11 09:30:19;;;;;;;3.47;3.15;;;20.80;63.20;;;;;;5070999;28;20193;-71
2022/05/11 09:32:46;;;;;;;3.30;3.10;;;20.80;63.20;;;;;;5072731;28;20201;-72
2022/05/11 09:35:14;;;;;;;2.95;2.75;;;20.80;63.10;;;;;;5073557;28;20206;-72
2022/05/11 09:37:42;;;;;;;3.40;3.03;;;20.80;63.20;;;;;;5056782;28;20192;-71
2022/05/11 09:40:22;;;;;;;3.65;3.35;;;20.80;63.00;;;;;;5073492;28;20697;-71
2022/05/11 09:43:02;;;;;;;3.08;2.88;;;20.80;63.00;;;;;;5054578;28;20178;-71
2022/05/11 09:45:49;;;;;;;3.35;3.15;;;20.80;62.90;;;;;;5053195;28;20268;-72
2022/05/11 09:48:27;;;;;;;3.40;3.10;;;20.80;63.10;;;;;;5053682;28;20178;-71
2022/05/11 09:51:16;;;;;;;3.13;2.92;;;20.80;63.10;;;;;;5056862;28;20181;-71
2022/05/11 09:53:55;;;;;;;2.97;2.78;;;20.80;63.10;;;;;;5090056;28;20288;-71
2022/05/11 09:56:32;;;;;;;3.05;2.85;;;20.80;63.10;;;;;;5073578;28;20174;-72
2022/05/11 09:59:37;;;;;;;3.35;3.08;;;20.80;63.20;;;;;;5072996;28;20225;-71
2022/05/11 10:02:25;;;;;;;3.38;2.58;;;20.80;63.00;;;;;;5089570;28;20189;-71
2022/05/11 10:05:11;;;;;;;2.97;2.78;;;20.80;63.20;;;;;;5089920;28;20216;-71
2022/05/11 10:07:52;;;;;;;3.05;2.85;;;20.80;63.20;;;;;;5074640;28;20174;-71
2022/05/11 10:10:31;;;;;;;4.00;3.13;;;20.80;63.10;;;;;;5090130;28;20166;-72
2022/05/11 10:13:13;;;;;;;3.15;2.85;;;20.90;63.30;;;;;;5053837;28;20169;-71
2022/05/11 10:21:56;;;;;;;2.85;2.65;;;20.90;63.20;;;;;;5059347;28;20181;-71
2022/05/11 10:24:59;;;;;;;3.33;3.13;;;20.90;63.30;;;;;;5072861;28;20194;-72
2022/05/11 10:28:22;;;;;;;3.05;2.85;;;20.80;63.20;;;;;;5072814;28;20193;-72
2022/05/11 10:31:11;;;;;;;3.28;2.95;;;20.90;63.20;;;;;;5051639;28;20197;-72
2022/05/11 10:33:57;;;;;;;3.00;2.80;;;20.90;63.30;;;;;;5044689;28;20200;-71
2022/05/11 10:36:38;;;;;;;3.53;3.25;;;20.90;63.30;;;;;;5066438;28;20185;-71
2022/05/11 10:39:27;;;;;;;3.95;3.20;;;20.90;63.30;;;;;;5052297;28;20357;-71
2022/05/11 10:42:12;;;;;;;3.05;2.85;;;20.90;63.40;;;;;;5047405;28;20198;-71
2022/05/11 10:45:14;;;;;;;3.42;3.20;;;20.90;63.30;;;;;;5072007;28;20689;-71
2022/05/11 10:48:05;;;;;;;3.15;2.95;;;20.90;63.50;;;;;;5073700;28;20162;-71
2022/05/11 10:51:09;;;;;;;3.05;2.85;;;20.90;63.50;;;;;;5071418;28;20255;-71
2022/05/11 10:53:46;;;;;;;3.20;3.00;;;20.90;63.50;;;;;;5053300;28;20174;-71
2022/05/11 10:56:39;;;;;;;3.67;2.72;;;20.90;63.40;;;;;;5052068;28;20170;-71
2022/05/11 10:59:50;;;;;;;3.05;2.72;;;20.90;63.50;;;;;;5068973;28;20221;-71
2022/05/11 11:02:27;;;;;;;2.85;2.65;;;20.90;63.60;;;;;;5068061;28;20210;-71
2022/05/11 11:05:30;;;;;;;3.15;2.88;;;20.90;63.50;;;;;;5057575;28;20255;-71
2022/05/11 11:08:30;;;;;;;3.78;2.92;;;20.90;63.50;;;;;;5071202;28;20184;-72
2022/05/11 11:11:22;;;;;;;2.80;2.60;;;21.00;63.50;;;;;;5050791;28;20182;-71
2022/05/11 11:14:01;;;;;;;2.95;2.40;;;20.90;63.30;;;;;;5052912;28;20219;-71
2022/05/11 11:16:34;;;;;;;3.08;2.80;;;21.00;63.40;;;;;;5051962;28;20186;-71
2022/05/11 11:19:04;;;;;;;3.30;2.88;;;20.90;64.10;;;;;;5051806;28;20214;-71
2022/05/11 11:21:31;;;;;;;2.80;2.60;;;21.00;63.50;;;;;;5052972;28;20194;-71
2022/05/11 11:24:27;;;;;;;3.47;3.17;;;21.00;63.60;;;;;;5055079;28;20644;-71
2022/05/11 11:26:57;;;;;;;3.40;3.10;;;21.00;63.60;;;;;;5054934;28;20182;-71
2022/05/11 11:29:36;;;;;;;3.05;2.85;;;21.00;63.80;;;;;;5071606;28;20178;-70
2022/05/11 11:32:15;;;;;;;2.92;2.72;;;21.00;63.70;;;;;;5040918;28;20178;-71
2022/05/11 11:35:22;;;;;;;3.08;2.88;;;20.90;63.50;;;;;;5035118;28;20198;-71
2022/05/11 11:38:01;;;;;;;3.28;2.97;;;21.00;63.70;;;;;;5051329;28;20191;-71
2022/05/11 11:40:31;;;;;;;3.20;2.90;;;21.00;63.80;;;;;;5068557;28;20198;-72
2022/05/11 11:42:58;;;;;;;3.00;2.80;;;21.00;63.70;;;;;;5072153;28;20188;-71
2022/05/11 11:45:26;;;;;;;3.63;3.25;;;21.00;63.80;;;;;;5055182;28;20555;-71
2022/05/11 11:48:18;;;;;;;3.45;3.15;;;21.00;63.80;;;;;;5072011;28;20186;-72
2022/05/11 11:50:45;;;;;;;3.10;2.90;;;21.00;63.90;;;;;;5067540;28;20186;-70
2022/05/11 11:53:24;;;;;;;3.17;2.92;;;21.00;63.90;;;;;;5051357;28;20190;-71
2022/05/11 11:55:50;;;;;;;4.03;3.65;;;21.00;64.00;;;;;;5034899;28;20186;-71
2022/05/11 11:58:30;;;;;;;3.25;2.92;;;21.00;63.90;;;;;;5051097;28;20186;-71
2022/05/11 12:01:11;;;;;;;3.50;3.17;;;21.00;63.90;;;;;;5034556;28;20221;-71
2022/05/11 12:03:55;;;;;;;3.55;3.25;;;21.00;63.80;;;;;;5034538;28;20186;-71
2022/05/11 12:15:01;;;;;;;2.85;2.65;;;21.00;63.90;;;;;;5052209;28;20209;-72
2022/05/11 12:17:45;;;;;;;3.42;3.20;;;21.00;63.90;;;;;;5051282;28;20178;-72
2022/05/11 12:20:19;;;;;;;3.22;2.95;;;21.00;63.90;;;;;;5034286;28;20252;-72
2022/05/11 12:22:50;;;;;;;3.35;3.05;;;21.00;64.00;;;;;;5034139;28;20178;-71
2022/05/11 12:25:31;;;;;;;3.10;2.90;;;21.00;64.00;;;;;;5034046;28;20252;-72
2022/05/11 12:28:02;;;;;;;3.45;3.15;;;21.00;64.20;;;;;;5067591;28;20182;-71
2022/05/11 12:30:41;;;;;;;4.40;3.28;;;21.00;64.10;;;;;;5067588;28;20178;-71
2022/05/11 12:33:17;;;;;;;3.60;3.30;;;21.00;64.10;;;;;;5034227;28;20263;-73
2022/05/11 12:35:46;;;;;;;4.15;3.50;;;21.00;64.10;;;;;;5052538;28;20232;-72
2022/05/11 12:38:25;;;;;;;3.50;3.20;;;21.00;64.00;;;;;;5034796;28;20178;-72
2022/05/11 12:40:53;;;;;;;3.80;3.10;;;21.00;64.00;;;;;;5035414;28;20190;-72
2022/05/11 12:43:29;;;;;;;3.42;3.22;;;21.10;64.10;;;;;;5051591;28;20285;-72
2022/05/11 12:46:05;;;;;;;3.60;3.30;;;21.10;64.00;;;;;;5038985;28;20201;-72
2022/05/11 12:48:39;;;;;;;3.30;3.10;;;21.10;64.10;;;;;;5054998;28;20232;-71
2022/05/11 12:51:13;;;;;;;4.75;2.65;;;21.10;64.20;;;;;;5039232;28;20221;-73
2022/05/11 12:53:50;;;;;;;3.53;2.90;;;21.00;64.40;;;;;;5038955;28;20260;-72
2022/05/11 12:56:19;;;;;;;3.20;3.00;;;21.00;64.40;;;;;;5038337;28;20190;-72
2022/05/11 12:59:02;;;;;;;3.60;3.30;;;21.10;64.50;;;;;;5038386;28;20211;-72
2022/05/11 13:01:32;;;;;;;3.28;2.97;;;21.10;64.10;;;;;;5057296;28;20175;-71
2022/05/11 13:04:02;;;;;;;3.50;3.20;;;21.10;64.00;;;;;;5072001;28;20210;-72
2022/05/11 13:06:38;;;;;;;3.30;3.00;;;21.10;64.10;;;;;;5039942;28;20191;-72
2022/05/11 13:09:37;;;;;;;3.65;3.33;;;21.10;64.00;;;;;;5039229;28;20185;-71
2022/05/11 13:12:05;;;;;;;3.30;3.00;;;21.10;64.10;;;;;;5055786;28;20179;-71
2022/05/11 13:14:43;;;;;;;3.67;3.30;;;21.10;64.10;;;;;;5055032;28;20210;-71
2022/05/11 13:17:19;;;;;;;4.78;3.20;;;21.10;64.30;;;;;;5056084;28;20208;-72
2022/05/11 13:19:55;;;;;;;3.35;3.13;;;21.10;64.60;;;;;;5056225;28;20217;-72
2022/05/11 13:22:28;;;;;;;3.25;2.95;;;21.10;64.40;;;;;;5056064;28;20224;-71
2022/05/11 13:25:08;;;;;;;3.53;3.22;;;21.10;64.40;;;;;;5038599;28;20586;-72
2022/05/11 13:27:48;;;;;;;3.60;3.30;;;21.10;64.60;;;;;;5039126;28;20630;-73
2022/05/11 13:30:33;;;;;;;3.45;3.15;;;21.10;64.90;;;;;;5073193;28;20181;-72
2022/05/11 13:33:23;;;;;;;3.90;3.33;;;21.10;64.60;;;;;;5057307;28;20210;-72
2022/05/11 13:36:06;;;;;;;3.80;3.42;;;21.10;64.80;;;;;;5077251;28;20183;-70
2022/05/11 13:38:32;;;;;;;4.00;3.22;;;21.10;65.00;;;;;;5053721;28;20166;-71
2022/05/11 13:41:05;;;;;;;3.75;2.90;;;21.10;65.10;;;;;;5053971;28;20772;-72
2022/05/11 13:43:45;;;;;;;4.10;3.10;;;21.10;64.70;;;;;;5053834;28;20193;-72
2022/05/11 13:46:32;;;;;;;3.58;3.28;;;21.10;64.60;;;;;;5054526;28;20266;-71
2022/05/11 13:49:24;;;;;;;3.80;3.33;;;21.10;65.50;;;;;;5040029;28;20179;-72
2022/05/11 13:51:51;;;;;;;4.10;3.53;;;21.10;64.80;;;;;;5055046;28;20253;-70
2022/05/11 13:54:21;;;;;;;4.55;3.50;;;21.10;64.80;;;;;;5054729;28;20279;-71
2022/05/11 13:56:59;;;;;;;4.10;3.35;;;21.10;64.60;;;;;;5054365;28;20246;-72